sensor_id;sensor_type;location;lat;lon;timestamp;pressure;altitude;pressure_sealevel;temperature;humidity
18145;BME280;14857;41.200;-8.326;2022-07-11T00:02:18;99962.78;;;17.71;100.00
18145;BME280;14857;41.200;-8.326;2022-07-11T00:04:47;99963.28;;;17.66;100.00
18145;BME280;14857;41.200;-8.326;2022-07-11T00:07:15;99968.09;;;17.71;100.00
18145;BME280;14857;41.200;-8.326;2022-07-11T00:09:45;99966.13;;;17.73;100.00
18145;BME280;14857;41.200;-8.326;2022-07-11T00:12:14;99954.53;;;17.74;100.00
18145;BME280;14857;41.200;-8.326;2022-07-11T00:14:43;99954.81;;;17.63;100.00
18145;BME280;14857;41.200;-8.326;2022-07-11T00:17:11;99955.13;;;17.60;100.00
18145;BME280;14857;41.200;-8.326;2022-07-11T00:19:40;99949.84;;;17.60;100.00
18145;BME280;14857;41.200;-8.326;2022-07-11T00:22:08;99954.19;;;17.69;100.00
18145;BME280;14857;41.200;-8.326;2022-07-11T00:24:37;99955.25;;;17.76;100.00
18145;BME280;14857;41.200;-8.326;2022-07-11T00:27:07;99952.84;;;17.65;100.00
18145;BME280;14857;41.200;-8.326;2022-07-11T00:29:36;99954.38;;;17.50;100.00
18145;BME280;14857;41.200;-8.326;2022-07-11T00:32:06;99951.66;;;17.42;100.00
18145;BME280;14857;41.200;-8.326;2022-07-11T00:34:34;99934.78;;;17.35;100.00
18145;BME280;14857;41.200;-8.326;2022-07-11T00:37:04;99904.53;;;17.11;100.00
18145;BME280;14857;41.200;-8.326;2022-07-11T00:39:32;99935.09;;;17.31;100.00
18145;BME280;14857;41.200;-8.326;2022-07-11T00:42:01;99929.00;;;17.13;100.00
18145;BME280;14857;41.200;-8.326;2022-07-11T00:44:31;99956.25;;;17.31;100.00
18145;BME280;14857;41.200;-8.326;2022-07-11T00:47:00;99917.53;;;17.05;100.00
18145;BME280;14857;41.200;-8.326;2022-07-11T00:49:28;99946.88;;;17.19;100.00
18145;BME280;14857;41.200;-8.326;2022-07-11T00:51:57;99925.28;;;17.06;100.00
18145;BME280;14857;41.200;-8.326;2022-07-11T00:54:27;99939.19;;;17.08;100.00
18145;BME280;14857;41.200;-8.326;2022-07-11T00:56:56;99911.88;;;17.00;100.00
18145;BME280;14857;41.200;-8.326;2022-07-11T00:59:25;99912.16;;;16.97;100.00
18145;BME280;14857;41.200;-8.326;2022-07-11T01:01:55;99923.97;;;17.02;100.00
18145;BME280;14857;41.200;-8.326;2022-07-11T01:04:24;99911.28;;;16.88;100.00
18145;BME280;14857;41.200;-8.326;2022-07-11T01:06:53;99920.63;;;17.00;100.00
18145;BME280;14857;41.200;-8.326;2022-07-11T01:09:21;99911.72;;;17.01;100.00
18145;BME280;14857;41.200;-8.326;2022-07-11T01:11:50;99898.38;;;16.85;100.00
18145;BME280;14857;41.200;-8.326;2022-07-11T01:14:18;99915.50;;;16.99;100.00
18145;BME280;14857;41.200;-8.326;2022-07-11T01:16:47;99920.63;;;17.00;100.00
18145;BME280;14857;41.200;-8.326;2022-07-11T01:19:18;99878.09;;;16.68;100.00
18145;BME280;14857;41.200;-8.326;2022-07-11T01:21:49;99904.63;;;16.84;100.00
18145;BME280;14857;41.200;-8.326;2022-07-11T01:24:20;99922.91;;;16.95;100.00
18145;BME280;14857;41.200;-8.326;2022-07-11T01:26:51;99893.41;;;16.82;100.00
18145;BME280;14857;41.200;-8.326;2022-07-11T01:29:19;99916.56;;;16.88;100.00
18145;BME280;14857;41.200;-8.326;2022-07-11T01:31:48;99913.56;;;16.83;100.00
18145;BME280;14857;41.200;-8.326;2022-07-11T01:34:16;99888.13;;;16.64;100.00
18145;BME280;14857;41.200;-8.326;2022-07-11T01:36:45;99916.78;;;16.77;100.00
18145;BME280;14857;41.200;-8.326;2022-07-11T01:39:13;99907.75;;;16.79;100.00
18145;BME280;14857;41.200;-8.326;2022-07-11T01:41:43;99909.69;;;16.77;100.00
18145;BME280;14857;41.200;-8.326;2022-07-11T01:44:12;99880.66;;;16.60;100.00
18145;BME280;14857;41.200;-8.326;2022-07-11T01:46:40;99901.78;;;16.60;100.00
18145;BME280;14857;41.200;-8.326;2022-07-11T01:49:10;99856.94;;;16.33;100.00
18145;BME280;14857;41.200;-8.326;2022-07-11T01:51:38;99866.06;;;16.38;100.00
18145;BME280;14857;41.200;-8.326;2022-07-11T01:54:07;99901.09;;;16.58;100.00
18145;BME280;14857;41.200;-8.326;2022-07-11T01:56:35;99908.72;;;16.61;100.00
18145;BME280;14857;41.200;-8.326;2022-07-11T01:59:05;99854.94;;;16.44;100.00
18145;BME280;14857;41.200;-8.326;2022-07-11T02:01:34;99849.78;;;16.43;100.00
18145;BME280;14857;41.200;-8.326;2022-07-11T02:04:03;99841.56;;;16.46;100.00
18145;BME280;14857;41.200;-8.326;2022-07-11T02:06:32;99889.72;;;16.75;100.00
18145;BME280;14857;41.200;-8.326;2022-07-11T02:09:01;99870.38;;;16.74;100.00
18145;BME280;14857;41.200;-8.326;2022-07-11T02:11:29;99877.69;;;16.80;100.00
18145;BME280;14857;41.200;-8.326;2022-07-11T02:13:58;99875.28;;;16.87;100.00
18145;BME280;14857;41.200;-8.326;2022-07-11T02:16:28;99846.63;;;16.74;100.00
18145;BME280;14857;41.200;-8.326;2022-07-11T02:18:57;99868.19;;;16.88;100.00
18145;BME280;14857;41.200;-8.326;2022-07-11T02:21:26;99870.69;;;16.89;100.00
18145;BME280;14857;41.200;-8.326;2022-07-11T02:23:55;99863.31;;;16.75;100.00
18145;BME280;14857;41.200;-8.326;2022-07-11T02:26:23;99877.16;;;16.95;100.00
18145;BME280;14857;41.200;-8.326;2022-07-11T02:28:52;99873.38;;;16.97;100.00
18145;BME280;14857;41.200;-8.326;2022-07-11T02:31:21;99844.16;;;16.73;100.00
18145;BME280;14857;41.200;-8.326;2022-07-11T02:33:51;99882.00;;;16.99;100.00
18145;BME280;14857;41.200;-8.326;2022-07-11T02:36:19;99880.63;;;16.95;100.00
18145;BME280;14857;41.200;-8.326;2022-07-11T02:38:48;99875.88;;;16.99;100.00
18145;BME280;14857;41.200;-8.326;2022-07-11T02:41:16;99880.03;;;17.01;100.00
18145;BME280;14857;41.200;-8.326;2022-07-11T02:43:46;99877.03;;;16.96;100.00
18145;BME280;14857;41.200;-8.326;2022-07-11T02:46:14;99874.22;;;16.98;100.00
18145;BME280;14857;41.200;-8.326;2022-07-11T02:48:43;99874.97;;;16.90;100.00
18145;BME280;14857;41.200;-8.326;2022-07-11T02:51:13;99861.06;;;16.80;100.00
18145;BME280;14857;41.200;-8.326;2022-07-11T02:53:41;99865.94;;;16.75;100.00
18145;BME280;14857;41.200;-8.326;2022-07-11T02:56:11;99848.38;;;16.66;100.00
18145;BME280;14857;41.200;-8.326;2022-07-11T02:58:40;99867.59;;;16.76;100.00
18145;BME280;14857;41.200;-8.326;2022-07-11T03:01:07;99872.38;;;16.72;100.00
18145;BME280;14857;41.200;-8.326;2022-07-11T03:03:36;99860.38;;;16.60;100.00
18145;BME280;14857;41.200;-8.326;2022-07-11T03:06:05;99859.28;;;16.71;100.00
18145;BME280;14857;41.200;-8.326;2022-07-11T03:08:35;99802.53;;;16.32;100.00
18145;BME280;14857;41.200;-8.326;2022-07-11T03:11:04;99861.28;;;16.69;100.00
18145;BME280;14857;41.200;-8.326;2022-07-11T03:13:33;99860.31;;;16.70;100.00
18145;BME280;14857;41.200;-8.326;2022-07-11T03:16:02;99781.47;;;16.22;100.00
18145;BME280;14857;41.200;-8.326;2022-07-11T03:18:32;99856.34;;;16.74;100.00
18145;BME280;14857;41.200;-8.326;2022-07-11T03:21:01;99839.56;;;16.57;100.00
18145;BME280;14857;41.200;-8.326;2022-07-11T03:23:30;99805.97;;;16.32;100.00
18145;BME280;14857;41.200;-8.326;2022-07-11T03:26:00;99851.50;;;16.52;100.00
18145;BME280;14857;41.200;-8.326;2022-07-11T03:28:29;99849.88;;;16.51;100.00
18145;BME280;14857;41.200;-8.326;2022-07-11T03:30:58;99828.38;;;16.28;100.00
18145;BME280;14857;41.200;-8.326;2022-07-11T03:33:27;99864.19;;;16.31;100.00
18145;BME280;14857;41.200;-8.326;2022-07-11T03:35:55;99854.75;;;16.28;100.00
18145;BME280;14857;41.200;-8.326;2022-07-11T03:38:24;99862.06;;;16.34;100.00
18145;BME280;14857;41.200;-8.326;2022-07-11T03:40:52;99837.94;;;16.11;100.00
18145;BME280;14857;41.200;-8.326;2022-07-11T03:43:24;99868.56;;;16.40;100.00
18145;BME280;14857;41.200;-8.326;2022-07-11T03:45:53;99868.91;;;16.45;100.00
18145;BME280;14857;41.200;-8.326;2022-07-11T03:48:21;99872.56;;;16.44;100.00
18145;BME280;14857;41.200;-8.326;2022-07-11T03:50:50;99880.19;;;16.47;100.00
18145;BME280;14857;41.200;-8.326;2022-07-11T03:53:19;99880.19;;;16.47;100.00
18145;BME280;14857;41.200;-8.326;2022-07-11T03:55:48;99848.66;;;16.27;100.00
18145;BME280;14857;41.200;-8.326;2022-07-11T03:58:16;99876.56;;;16.48;100.00
18145;BME280;14857;41.200;-8.326;2022-07-11T04:03:49;99873.22;;;16.46;100.00
18145;BME280;14857;41.200;-8.326;2022-07-11T04:06:17;99888.47;;;16.52;100.00
18145;BME280;14857;41.200;-8.326;2022-07-11T04:08:46;99875.50;;;16.41;100.00
18145;BME280;14857;41.200;-8.326;2022-07-11T04:11:14;99841.78;;;16.17;100.00
18145;BME280;14857;41.200;-8.326;2022-07-11T04:13:43;99882.41;;;16.42;100.00
18145;BME280;14857;41.200;-8.326;2022-07-11T04:16:12;99872.63;;;16.34;100.00
18145;BME280;14857;41.200;-8.326;2022-07-11T04:18:41;99876.97;;;16.25;100.00
18145;BME280;14857;41.200;-8.326;2022-07-11T04:21:11;99869.59;;;16.11;100.00
18145;BME280;14857;41.200;-8.326;2022-07-11T04:23:39;99854.25;;;15.97;100.00
18145;BME280;14857;41.200;-8.326;2022-07-11T04:26:09;99866.53;;;16.06;100.00
18145;BME280;14857;41.200;-8.326;2022-07-11T04:28:37;99874.31;;;16.08;100.00
18145;BME280;14857;41.200;-8.326;2022-07-11T04:31:06;99864.59;;;16.08;100.00
18145;BME280;14857;41.200;-8.326;2022-07-11T04:33:34;99870.97;;;16.06;100.00
18145;BME280;14857;41.200;-8.326;2022-07-11T04:36:03;99874.16;;;16.09;100.00
18145;BME280;14857;41.200;-8.326;2022-07-11T04:38:33;99873.06;;;16.12;100.00
18145;BME280;14857;41.200;-8.326;2022-07-11T04:41:01;99870.56;;;16.10;100.00
18145;BME280;14857;41.200;-8.326;2022-07-11T04:43:30;99840.75;;;16.00;100.00
18145;BME280;14857;41.200;-8.326;2022-07-11T04:46:01;99832.84;;;16.00;100.00
18145;BME280;14857;41.200;-8.326;2022-07-11T04:48:31;99849.88;;;16.06;100.00
18145;BME280;14857;41.200;-8.326;2022-07-11T04:50:59;99857.59;;;16.17;100.00
18145;BME280;14857;41.200;-8.326;2022-07-11T04:53:28;99857.31;;;16.20;100.00
18145;BME280;14857;41.200;-8.326;2022-07-11T04:55:58;99855.50;;;16.20;100.00
18145;BME280;14857;41.200;-8.326;2022-07-11T04:58:26;99848.94;;;16.24;100.00
18145;BME280;14857;41.200;-8.326;2022-07-11T05:00:59;99834.59;;;16.09;100.00
18145;BME280;14857;41.200;-8.326;2022-07-11T05:03:28;99854.22;;;16.24;100.00
18145;BME280;14857;41.200;-8.326;2022-07-11T05:05:56;99854.00;;;16.18;100.00
18145;BME280;14857;41.200;-8.326;2022-07-11T05:08:25;99849.09;;;16.05;100.00
18145;BME280;14857;41.200;-8.326;2022-07-11T05:10:54;99851.78;;;16.13;100.00
18145;BME280;14857;41.200;-8.326;2022-07-11T05:13:24;99833.97;;;15.98;100.00
18145;BME280;14857;41.200;-8.326;2022-07-11T05:15:52;99851.00;;;16.03;100.00
18145;BME280;14857;41.200;-8.326;2022-07-11T05:18:21;99832.66;;;15.84;100.00
18145;BME280;14857;41.200;-8.326;2022-07-11T05:20:49;99852.75;;;15.95;100.00
18145;BME280;14857;41.200;-8.326;2022-07-11T05:23:18;99849.69;;;15.99;100.00
18145;BME280;14857;41.200;-8.326;2022-07-11T05:25:47;99836.44;;;16.09;100.00
18145;BME280;14857;41.200;-8.326;2022-07-11T05:28:15;99801.44;;;15.89;100.00
18145;BME280;14857;41.200;-8.326;2022-07-11T05:30:45;99851.28;;;16.27;100.00
18145;BME280;14857;41.200;-8.326;2022-07-11T05:33:14;99844.13;;;16.38;100.00
18145;BME280;14857;41.200;-8.326;2022-07-11T05:35:42;99855.47;;;16.48;100.00
18145;BME280;14857;41.200;-8.326;2022-07-11T05:38:11;99853.25;;;16.43;100.00
18145;BME280;14857;41.200;-8.326;2022-07-11T05:40:39;99843.41;;;16.63;100.00
18145;BME280;14857;41.200;-8.326;2022-07-11T05:43:08;99849.13;;;16.76;100.00
18145;BME280;14857;41.200;-8.326;2022-07-11T05:45:36;99845.91;;;16.90;100.00
18145;BME280;14857;41.200;-8.326;2022-07-11T05:48:06;99841.06;;;17.03;100.00
18145;BME280;14857;41.200;-8.326;2022-07-11T05:50:35;99835.78;;;17.29;100.00
18145;BME280;14857;41.200;-8.326;2022-07-11T05:53:04;99839.81;;;17.67;100.00
18145;BME280;14857;41.200;-8.326;2022-07-11T05:55:32;99818.47;;;18.18;100.00
18145;BME280;14857;41.200;-8.326;2022-07-11T05:58:01;99755.94;;;18.17;100.00
18145;BME280;14857;41.200;-8.326;2022-07-11T06:00:30;99805.47;;;18.81;100.00
18145;BME280;14857;41.200;-8.326;2022-07-11T06:02:58;99805.03;;;19.41;100.00
18145;BME280;14857;41.200;-8.326;2022-07-11T06:05:28;99805.84;;;20.11;100.00
18145;BME280;14857;41.200;-8.326;2022-07-11T06:07:57;99762.53;;;20.41;100.00
18145;BME280;14857;41.200;-8.326;2022-07-11T06:10:42;99800.94;;;21.28;100.00
18145;BME280;14857;41.200;-8.326;2022-07-11T06:13:11;99769.53;;;21.68;100.00
18145;BME280;14857;41.200;-8.326;2022-07-11T06:15:40;99797.19;;;22.24;100.00
18145;BME280;14857;41.200;-8.326;2022-07-11T06:18:08;99790.91;;;22.52;100.00
18145;BME280;14857;41.200;-8.326;2022-07-11T06:20:38;99800.56;;;22.54;100.00
18145;BME280;14857;41.200;-8.326;2022-07-11T06:23:07;99747.13;;;22.62;100.00
18145;BME280;14857;41.200;-8.326;2022-07-11T06:25:36;99801.19;;;23.67;100.00
18145;BME280;14857;41.200;-8.326;2022-07-11T06:28:05;99776.38;;;23.79;100.00
18145;BME280;14857;41.200;-8.326;2022-07-11T06:30:34;99797.31;;;24.49;100.00
18145;BME280;14857;41.200;-8.326;2022-07-11T06:33:03;99775.09;;;24.75;100.00
18145;BME280;14857;41.200;-8.326;2022-07-11T06:35:32;99747.97;;;24.85;100.00
18145;BME280;14857;41.200;-8.326;2022-07-11T06:38:03;99802.19;;;25.64;100.00
18145;BME280;14857;41.200;-8.326;2022-07-11T06:40:31;99783.31;;;26.28;100.00
18145;BME280;14857;41.200;-8.326;2022-07-11T06:43:00;99795.41;;;26.69;99.97
18145;BME280;14857;41.200;-8.326;2022-07-11T06:45:30;99813.59;;;27.16;96.47
18145;BME280;14857;41.200;-8.326;2022-07-11T06:47:58;99812.13;;;27.56;93.25
18145;BME280;14857;41.200;-8.326;2022-07-11T06:50:27;99821.50;;;28.02;90.30
18145;BME280;14857;41.200;-8.326;2022-07-11T06:52:56;99817.56;;;28.34;88.02
18145;BME280;14857;41.200;-8.326;2022-07-11T06:55:26;99823.56;;;28.78;85.96
18145;BME280;14857;41.200;-8.326;2022-07-11T06:57:54;99804.94;;;29.57;79.99
18145;BME280;14857;41.200;-8.326;2022-07-11T07:00:43;99825.81;;;30.02;76.41
18145;BME280;14857;41.200;-8.326;2022-07-11T07:03:12;99806.16;;;30.46;74.05
18145;BME280;14857;41.200;-8.326;2022-07-11T07:05:46;99836.78;;;30.68;72.11
18145;BME280;14857;41.200;-8.326;2022-07-11T07:08:15;99844.22;;;30.05;76.38
18145;BME280;14857;41.200;-8.326;2022-07-11T07:10:44;99851.25;;;30.34;74.83
18145;BME280;14857;41.200;-8.326;2022-07-11T07:13:13;99847.81;;;29.70;74.90
18145;BME280;14857;41.200;-8.326;2022-07-11T07:15:41;99815.53;;;28.00;81.61
18145;BME280;14857;41.200;-8.326;2022-07-11T07:18:10;99844.91;;;26.73;93.93
18145;BME280;14857;41.200;-8.326;2022-07-11T07:20:39;99837.22;;;27.07;95.26
18145;BME280;14857;41.200;-8.326;2022-07-11T07:23:08;99833.94;;;26.81;95.09
18145;BME280;14857;41.200;-8.326;2022-07-11T07:25:37;99835.84;;;26.42;97.95
18145;BME280;14857;41.200;-8.326;2022-07-11T07:28:07;99841.19;;;26.42;99.56
18145;BME280;14857;41.200;-8.326;2022-07-11T07:30:35;99829.50;;;25.86;100.00
18145;BME280;14857;41.200;-8.326;2022-07-11T07:33:04;99828.56;;;25.47;100.00
18145;BME280;14857;41.200;-8.326;2022-07-11T07:35:32;99835.97;;;25.72;100.00
18145;BME280;14857;41.200;-8.326;2022-07-11T07:38:01;99834.25;;;27.16;97.51
18145;BME280;14857;41.200;-8.326;2022-07-11T07:40:30;99820.50;;;28.86;86.33
18145;BME280;14857;41.200;-8.326;2022-07-11T07:42:58;99752.41;;;29.60;80.16
18145;BME280;14857;41.200;-8.326;2022-07-11T07:45:30;99835.88;;;30.46;76.31
18145;BME280;14857;41.200;-8.326;2022-07-11T07:48:00;99837.66;;;30.01;77.37
18145;BME280;14857;41.200;-8.326;2022-07-11T07:50:28;99817.28;;;29.30;78.73
18145;BME280;14857;41.200;-8.326;2022-07-11T07:52:57;99847.88;;;27.93;87.83
18145;BME280;14857;41.200;-8.326;2022-07-11T07:55:25;99845.50;;;27.24;92.21
18145;BME280;14857;41.200;-8.326;2022-07-11T07:57:54;99848.72;;;25.70;100.00
18145;BME280;14857;41.200;-8.326;2022-07-11T08:00:22;99843.63;;;25.35;100.00
18145;BME280;14857;41.200;-8.326;2022-07-11T08:03:10;99829.00;;;25.38;100.00
18145;BME280;14857;41.200;-8.326;2022-07-11T08:05:38;99856.94;;;24.37;100.00
18145;BME280;14857;41.200;-8.326;2022-07-11T08:08:07;99852.72;;;25.15;100.00
18145;BME280;14857;41.200;-8.326;2022-07-11T08:10:36;99836.41;;;25.55;100.00
18145;BME280;14857;41.200;-8.326;2022-07-11T08:13:04;99837.22;;;26.20;100.00
18145;BME280;14857;41.200;-8.326;2022-07-11T08:15:33;99852.31;;;27.88;95.03
18145;BME280;14857;41.200;-8.326;2022-07-11T08:18:02;99867.81;;;29.98;82.48
18145;BME280;14857;41.200;-8.326;2022-07-11T08:20:32;99833.47;;;31.11;74.99
18145;BME280;14857;41.200;-8.326;2022-07-11T08:23:01;99861.34;;;32.37;68.45
18145;BME280;14857;41.200;-8.326;2022-07-11T08:25:29;99864.63;;;32.39;66.77
18145;BME280;14857;41.200;-8.326;2022-07-11T08:27:58;99863.00;;;32.16;66.78
18145;BME280;14857;41.200;-8.326;2022-07-11T08:30:27;99847.91;;;31.99;67.26
18145;BME280;14857;41.200;-8.326;2022-07-11T08:32:55;99860.28;;;32.97;65.17
18145;BME280;14857;41.200;-8.326;2022-07-11T08:35:24;99857.50;;;34.22;61.41
18145;BME280;14857;41.200;-8.326;2022-07-11T08:37:54;99849.81;;;35.86;56.16
18145;BME280;14857;41.200;-8.326;2022-07-11T08:40:23;99851.94;;;35.94;53.87
18145;BME280;14857;41.200;-8.326;2022-07-11T08:42:53;99846.03;;;37.85;49.60
18145;BME280;14857;41.200;-8.326;2022-07-11T08:45:28;99839.94;;;39.32;45.77
18145;BME280;14857;41.200;-8.326;2022-07-11T08:47:58;99842.09;;;38.15;45.71
18145;BME280;14857;41.200;-8.326;2022-07-11T08:50:28;99840.50;;;38.51;45.97
18145;BME280;14857;41.200;-8.326;2022-07-11T08:52:58;99823.09;;;38.23;45.73
18145;BME280;14857;41.200;-8.326;2022-07-11T08:55:27;99844.19;;;39.25;44.83
18145;BME280;14857;41.200;-8.326;2022-07-11T08:57:55;99835.78;;;40.39;42.45
18145;BME280;14857;41.200;-8.326;2022-07-11T09:00:25;99848.25;;;41.43;39.81
18145;BME280;14857;41.200;-8.326;2022-07-11T09:02:54;99845.44;;;41.34;39.44
18145;BME280;14857;41.200;-8.326;2022-07-11T09:05:23;99815.38;;;41.68;38.28
18145;BME280;14857;41.200;-8.326;2022-07-11T09:07:52;99823.78;;;41.63;37.57
18145;BME280;14857;41.200;-8.326;2022-07-11T09:10:22;99846.09;;;41.62;37.68
18145;BME280;14857;41.200;-8.326;2022-07-11T09:13:02;99820.97;;;42.37;36.38
18145;BME280;14857;41.200;-8.326;2022-07-11T09:15:32;99832.00;;;42.71;36.08
18145;BME280;14857;41.200;-8.326;2022-07-11T09:18:01;99837.03;;;43.33;34.53
18145;BME280;14857;41.200;-8.326;2022-07-11T09:20:51;99812.00;;;43.09;34.17
18145;BME280;14857;41.200;-8.326;2022-07-11T09:23:37;99815.91;;;43.37;33.61
18145;BME280;14857;41.200;-8.326;2022-07-11T09:26:25;99828.41;;;44.22;32.65
18145;BME280;14857;41.200;-8.326;2022-07-11T09:29:05;99777.53;;;44.98;31.27
18145;BME280;14857;41.200;-8.326;2022-07-11T09:31:35;99816.03;;;45.39;30.29
18145;BME280;14857;41.200;-8.326;2022-07-11T09:34:06;99827.19;;;45.55;30.92
18145;BME280;14857;41.200;-8.326;2022-07-11T09:36:40;99815.97;;;45.15;31.10
18145;BME280;14857;41.200;-8.326;2022-07-11T09:39:11;99814.16;;;44.86;31.02
18145;BME280;14857;41.200;-8.326;2022-07-11T09:41:42;99825.69;;;45.45;29.98
18145;BME280;14857;41.200;-8.326;2022-07-11T09:44:13;99796.84;;;45.82;29.90
18145;BME280;14857;41.200;-8.326;2022-07-11T09:46:44;99800.06;;;43.92;31.37
18145;BME280;14857;41.200;-8.326;2022-07-11T09:49:14;99795.38;;;44.67;30.29
18145;BME280;14857;41.200;-8.326;2022-07-11T09:51:43;99812.91;;;44.83;30.08
18145;BME280;14857;41.200;-8.326;2022-07-11T09:54:12;99805.84;;;45.67;29.06
18145;BME280;14857;41.200;-8.326;2022-07-11T09:56:43;99817.00;;;45.95;28.63
18145;BME280;14857;41.200;-8.326;2022-07-11T09:59:23;99790.16;;;41.58;32.75
18145;BME280;14857;41.200;-8.326;2022-07-11T10:01:52;99825.47;;;43.69;30.99
18145;BME280;14857;41.200;-8.326;2022-07-11T10:04:22;99806.44;;;42.45;31.23
18145;BME280;14857;41.200;-8.326;2022-07-11T10:06:50;99817.16;;;44.81;29.50
18145;BME280;14857;41.200;-8.326;2022-07-11T10:09:19;99815.56;;;45.73;26.98
18145;BME280;14857;41.200;-8.326;2022-07-11T10:11:49;99805.56;;;46.49;27.70
18145;BME280;14857;41.200;-8.326;2022-07-11T10:14:18;99806.31;;;47.20;26.06
18145;BME280;14857;41.200;-8.326;2022-07-11T10:16:54;99814.88;;;47.31;25.80
18145;BME280;14857;41.200;-8.326;2022-07-11T10:19:35;99798.47;;;44.66;27.85
18145;BME280;14857;41.200;-8.326;2022-07-11T10:22:25;99801.31;;;41.61;29.24
18145;BME280;14857;41.200;-8.326;2022-07-11T10:24:58;99800.50;;;40.91;31.14
18145;BME280;14857;41.200;-8.326;2022-07-11T10:27:35;99791.91;;;40.83;31.74
18145;BME280;14857;41.200;-8.326;2022-07-11T10:30:08;99780.78;;;37.83;34.09
18145;BME280;14857;41.200;-8.326;2022-07-11T10:32:57;99773.56;;;37.50;36.22
18145;BME280;14857;41.200;-8.326;2022-07-11T10:35:28;99787.09;;;37.60;37.09
18145;BME280;14857;41.200;-8.326;2022-07-11T10:37:57;99791.88;;;37.21;38.11
18145;BME280;14857;41.200;-8.326;2022-07-11T10:40:43;99774.63;;;37.02;39.18
18145;BME280;14857;41.200;-8.326;2022-07-11T10:43:16;99786.59;;;36.77;38.71
18145;BME280;14857;41.200;-8.326;2022-07-11T10:46:01;99744.41;;;36.64;37.67
18145;BME280;14857;41.200;-8.326;2022-07-11T10:48:31;99692.63;;;36.64;37.00
18145;BME280;14857;41.200;-8.326;2022-07-11T10:51:14;99759.44;;;37.85;36.34
18145;BME280;14857;41.200;-8.326;2022-07-11T10:53:46;99783.63;;;38.16;36.58
18145;BME280;14857;41.200;-8.326;2022-07-11T10:56:36;99789.44;;;39.25;36.32
18145;BME280;14857;41.200;-8.326;2022-07-11T10:59:22;99779.78;;;39.68;35.79
18145;BME280;14857;41.200;-8.326;2022-07-11T11:02:18;99749.03;;;39.71;35.45
18145;BME280;14857;41.200;-8.326;2022-07-11T11:04:49;99793.91;;;39.34;37.82
18145;BME280;14857;41.200;-8.326;2022-07-11T11:07:34;99762.19;;;38.04;40.16
18145;BME280;14857;41.200;-8.326;2022-07-11T11:13:19;99787.69;;;35.24;45.69
18145;BME280;14857;41.200;-8.326;2022-07-11T11:15:51;99786.09;;;35.13;46.39
18145;BME280;14857;41.200;-8.326;2022-07-11T11:18:37;99782.81;;;34.20;49.21
18145;BME280;14857;41.200;-8.326;2022-07-11T11:21:16;99779.00;;;34.97;49.11
18145;BME280;14857;41.200;-8.326;2022-07-11T11:23:46;99784.19;;;35.08;50.86
18145;BME280;14857;41.200;-8.326;2022-07-11T11:26:48;99776.88;;;36.27;48.23
18145;BME280;14857;41.200;-8.326;2022-07-11T11:29:21;99761.56;;;36.70;48.03
18145;BME280;14857;41.200;-8.326;2022-07-11T11:31:55;99742.84;;;36.58;48.70
18145;BME280;14857;41.200;-8.326;2022-07-11T11:34:24;99784.13;;;38.37;46.48
18145;BME280;14857;41.200;-8.326;2022-07-11T11:36:54;99783.59;;;39.95;42.21
18145;BME280;14857;41.200;-8.326;2022-07-11T11:39:25;99782.25;;;39.70;41.46
18145;BME280;14857;41.200;-8.326;2022-07-11T11:42:00;99794.34;;;37.46;44.34
18145;BME280;14857;41.200;-8.326;2022-07-11T11:44:28;99779.56;;;35.14;48.85
18145;BME280;14857;41.200;-8.326;2022-07-11T11:46:58;99786.63;;;35.10;51.19
18145;BME280;14857;41.200;-8.326;2022-07-11T11:49:27;99777.03;;;33.29;55.03
18145;BME280;14857;41.200;-8.326;2022-07-11T11:51:59;99739.16;;;33.02;58.13
18145;BME280;14857;41.200;-8.326;2022-07-11T11:54:28;99771.44;;;33.56;58.82
18145;BME280;14857;41.200;-8.326;2022-07-11T11:57:05;99789.38;;;33.10;59.52
18145;BME280;14857;41.200;-8.326;2022-07-11T11:59:34;99748.41;;;32.64;63.57
18145;BME280;14857;41.200;-8.326;2022-07-11T12:02:04;99637.84;;;32.61;62.47
18145;BME280;14857;41.200;-8.326;2022-07-11T12:04:34;99786.81;;;33.35;64.06
18145;BME280;14857;41.200;-8.326;2022-07-11T12:07:04;99779.56;;;33.51;62.98
18145;BME280;14857;41.200;-8.326;2022-07-11T12:09:32;99752.03;;;33.84;61.34
18145;BME280;14857;41.200;-8.326;2022-07-11T12:12:19;99774.00;;;33.72;62.43
18145;BME280;14857;41.200;-8.326;2022-07-11T12:15:07;99740.16;;;32.54;66.49
18145;BME280;14857;41.200;-8.326;2022-07-11T12:17:56;99765.38;;;31.74;71.37
18145;BME280;14857;41.200;-8.326;2022-07-11T12:20:35;99761.63;;;32.29;72.63
18145;BME280;14857;41.200;-8.326;2022-07-11T12:23:05;99762.41;;;32.03;72.69
18145;BME280;14857;41.200;-8.326;2022-07-11T12:25:44;99759.19;;;32.28;73.13
18145;BME280;14857;41.200;-8.326;2022-07-11T12:28:13;99742.63;;;32.24;73.54
18145;BME280;14857;41.200;-8.326;2022-07-11T12:30:42;99708.69;;;32.43;71.43
18145;BME280;14857;41.200;-8.326;2022-07-11T12:33:13;99752.84;;;33.17;69.40
18145;BME280;14857;41.200;-8.326;2022-07-11T12:35:54;99734.16;;;33.26;69.47
18145;BME280;14857;41.200;-8.326;2022-07-11T12:38:23;99734.25;;;33.46;69.40
18145;BME280;14857;41.200;-8.326;2022-07-11T12:40:59;99731.09;;;33.74;67.19
18145;BME280;14857;41.200;-8.326;2022-07-11T12:43:41;99751.03;;;34.20;66.03
18145;BME280;14857;41.200;-8.326;2022-07-11T12:46:31;99716.50;;;34.06;64.03
18145;BME280;14857;41.200;-8.326;2022-07-11T12:49:06;99754.84;;;34.80;62.32
18145;BME280;14857;41.200;-8.326;2022-07-11T12:51:35;99734.13;;;35.04;60.79
18145;BME280;14857;41.200;-8.326;2022-07-11T12:54:08;99754.75;;;35.25;60.76
18145;BME280;14857;41.200;-8.326;2022-07-11T12:56:38;99707.09;;;33.41;65.63
18145;BME280;14857;41.200;-8.326;2022-07-11T12:59:18;99747.03;;;32.99;69.63
18145;BME280;14857;41.200;-8.326;2022-07-11T13:01:55;99729.31;;;32.49;75.03
18145;BME280;14857;41.200;-8.326;2022-07-11T13:04:33;99735.06;;;32.26;76.21
18145;BME280;14857;41.200;-8.326;2022-07-11T13:07:26;99732.44;;;32.36;76.42
18145;BME280;14857;41.200;-8.326;2022-07-11T13:10:15;99738.47;;;32.43;77.63
18145;BME280;14857;41.200;-8.326;2022-07-11T13:12:45;99729.13;;;32.02;79.88